Jard de Esperanza, Puerto Rico
Current Conditions -  °F | °C
As of 6:53 AM on Thursday 23 Oct 2014 (Local Time) from TJNR Reporting Station
Light Rain Light Rain  
Wind Chill: 80°   Ceiling: 2500
Heat Index: 85°   Visibility: 10mi
Dew Point: 76°   Wind: 3mph
Humidity: 87%   Direction: 230°SW
Pressure: 29.95"   Gusts: NA
Location:  18.2147°N, 65.7358°W
Report Text: TJNR 231053Z AUTO 23003KT 10SM -RA BKN025 BKN032 OVC070 27/24 A2995 RMK AO2 RAE0956B47 SLP142 P0000 T02670244
Loading
Personal Weather Stations






























Interactive Weather Map
Tropical Storm Tracking
New forecast layout! Learn more

10-Day Weather Forecast

Advertisements
Track Severe Weather on mobile